createdAt,value
2022-12-04T00:06:40.044Z,27.97
2022-12-04T00:16:44.526Z,26.30
2022-12-04T00:26:47.626Z,28.87
2022-12-04T00:36:52.049Z,29.90
2022-12-04T00:46:55.117Z,28.03
2022-12-04T00:56:59.451Z,28.07
2022-12-04T01:07:05.257Z,26.23
2022-12-04T01:17:09.945Z,28.90
2022-12-04T01:27:13.022Z,28.40
2022-12-04T01:37:17.431Z,29.83
2022-12-04T01:47:20.466Z,28.67
2022-12-04T01:57:27.772Z,31.97
2022-12-04T02:07:30.986Z,31.37
2022-12-04T02:17:46.102Z,29.40
2022-12-04T02:28:04.458Z,29.97
2022-12-04T02:38:13.013Z,32.30
2022-12-04T02:48:20.775Z,29.97
2022-12-04T02:58:29.592Z,28.97
2022-12-04T03:08:38.323Z,31.87
2022-12-04T03:18:44.727Z,34.80
2022-12-04T03:28:55.121Z,34.17
2022-12-04T03:39:04.132Z,33.33
2022-12-04T03:49:15.825Z,30.03
2022-12-04T03:59:24.248Z,33.33
2022-12-04T04:09:34.612Z,31.07
2022-12-04T04:19:57.546Z,31.63
2022-12-04T04:30:02.373Z,27.70
2022-12-04T04:40:14.520Z,29.63
2022-12-04T04:50:20.559Z,27.00
2022-12-04T05:00:24.313Z,28.20
2022-12-04T05:10:28.754Z,26.27
2022-12-04T05:20:31.761Z,28.70
2022-12-04T05:30:36.277Z,27.27
2022-12-04T05:40:39.259Z,28.80
2022-12-04T05:50:43.654Z,28.30
2022-12-04T06:00:46.700Z,29.30
2022-12-04T06:10:51.133Z,29.33
2022-12-04T06:20:54.255Z,33.20
2022-12-04T06:31:02.596Z,30.17
2022-12-04T06:41:06.729Z,34.17
2022-12-04T06:51:13.111Z,31.47
2022-12-04T07:01:17.967Z,36.60
2022-12-04T07:11:23.430Z,35.10
2022-12-04T07:21:29.408Z,33.27
2022-12-04T07:31:33.831Z,31.70
2022-12-04T07:41:37.121Z,35.63
2022-12-04T07:51:41.568Z,35.77
2022-12-04T08:01:44.763Z,34.13
2022-12-04T08:11:49.174Z,30.33
2022-12-04T08:21:52.284Z,32.77
2022-12-04T08:31:56.724Z,29.87
2022-12-04T08:41:59.777Z,28.07
2022-12-04T08:52:04.182Z,29.97
2022-12-04T09:02:07.632Z,29.83
2022-12-04T09:12:12.103Z,29.23
2022-12-04T09:22:15.096Z,28.50
2022-12-04T09:32:19.543Z,25.30
2022-12-04T09:42:35.554Z,28.40
2022-12-04T09:52:48.701Z,27.13
2022-12-04T10:02:57.142Z,28.87
2022-12-04T10:13:12.922Z,28.93
2022-12-04T10:23:26.300Z,32.20
2022-12-04T10:33:38.118Z,28.80
2022-12-04T10:43:44.833Z,28.40
2022-12-04T10:53:50.047Z,28.87
2022-12-04T11:04:01.233Z,29.47
2022-12-04T11:14:08.110Z,30.53
2022-12-04T11:24:21.992Z,25.67
2022-12-04T11:34:34.575Z,27.87
2022-12-04T11:44:37.909Z,33.90
2022-12-04T11:54:54.777Z,30.57
2022-12-04T12:05:33.985Z,25.07
2022-12-04T12:15:47.653Z,27.73
2022-12-04T12:25:59.734Z,25.53
2022-12-04T12:36:09.260Z,25.23
2022-12-04T12:46:16.508Z,25.67
2022-12-04T12:56:31.008Z,27.07
2022-12-04T13:06:38.080Z,31.57
2022-12-04T13:16:46.578Z,28.37
2022-12-04T13:26:56.601Z,26.73
2022-12-04T13:37:24.193Z,27.10
2022-12-04T13:47:29.366Z,26.70
2022-12-04T13:57:33.735Z,25.57
2022-12-04T14:07:39.400Z,31.90
2022-12-04T14:17:59.822Z,25.50
2022-12-04T14:28:14.534Z,27.67
2022-12-04T14:38:21.810Z,27.50
2022-12-04T14:48:34.690Z,25.23
2022-12-04T14:58:40.157Z,25.03
2022-12-04T15:08:50.586Z,25.40
2022-12-04T15:18:59.414Z,28.93
2022-12-04T15:29:05.635Z,28.10
2022-12-04T15:39:14.902Z,27.43
2022-12-04T15:49:20.014Z,26.00
2022-12-04T15:59:27.084Z,27.70
2022-12-04T16:09:30.365Z,24.43
2022-12-04T16:19:36.521Z,22.17
2022-12-04T16:29:39.759Z,25.90
2022-12-04T16:39:44.319Z,28.07
2022-12-04T16:49:50.429Z,25.73
2022-12-04T16:59:55.275Z,24.23
2022-12-04T17:09:58.451Z,26.13
2022-12-04T17:20:03.264Z,22.60
2022-12-04T17:30:07.861Z,24.50
2022-12-04T17:40:14.322Z,24.93
2022-12-04T17:50:17.423Z,24.13
2022-12-04T18:00:22.009Z,24.70
2022-12-04T18:10:25.281Z,26.03
2022-12-04T18:20:29.706Z,27.93
2022-12-04T18:30:34.573Z,24.10
2022-12-04T18:40:39.095Z,23.93
2022-12-04T18:50:43.334Z,27.70
2022-12-04T19:00:47.799Z,23.10
2022-12-04T19:10:50.851Z,21.03
2022-12-04T19:20:55.230Z,25.43
2022-12-04T19:30:58.504Z,24.70
2022-12-04T19:41:08.200Z,23.30
2022-12-04T19:51:13.239Z,22.87
2022-12-04T20:01:19.719Z,25.53
2022-12-04T20:11:22.920Z,24.13
2022-12-04T20:21:30.356Z,29.20
2022-12-04T20:31:35.099Z,25.33
2022-12-04T20:41:39.996Z,26.10
2022-12-04T20:51:44.381Z,22.53
2022-12-04T21:01:50.053Z,26.20
2022-12-04T21:11:55.145Z,24.93
2022-12-04T21:21:59.630Z,27.20
2022-12-04T21:32:02.656Z,25.20
2022-12-04T21:42:24.764Z,29.53
2022-12-04T21:52:27.852Z,24.77
2022-12-04T22:02:32.557Z,27.43
2022-12-04T22:12:52.110Z,26.00
2022-12-04T22:22:56.579Z,27.70
2022-12-04T22:32:59.598Z,30.10
2022-12-04T22:43:03.985Z,27.47
2022-12-04T22:53:07.049Z,25.63
2022-12-04T23:03:11.559Z,24.60
2022-12-04T23:13:14.611Z,26.93
2022-12-04T23:23:19.012Z,28.20
2022-12-04T23:33:22.038Z,23.67
2022-12-04T23:43:26.498Z,23.73
2022-12-04T23:53:29.714Z,24.73
